sensor_id;sensor_type;location;lat;lon;timestamp;P1;durP1;ratioP1;P2;durP2;ratioP2
13238;SDS011;6686;51.292;4.166;2023-05-19T00:01:03;9.02;;;6.72;;
13238;SDS011;6686;51.292;4.166;2023-05-19T00:03:49;8.50;;;6.63;;
13238;SDS011;6686;51.292;4.166;2023-05-19T00:06:35;8.95;;;6.45;;
13238;SDS011;6686;51.292;4.166;2023-05-19T00:09:21;10.30;;;6.10;;
13238;SDS011;6686;51.292;4.166;2023-05-19T00:12:07;6.33;;;5.67;;
13238;SDS011;6686;51.292;4.166;2023-05-19T00:14:53;8.63;;;6.40;;
13238;SDS011;6686;51.292;4.166;2023-05-19T00:17:39;8.63;;;6.45;;
13238;SDS011;6686;51.292;4.166;2023-05-19T00:20:25;9.80;;;6.17;;
13238;SDS011;6686;51.292;4.166;2023-05-19T00:23:11;9.47;;;6.73;;
13238;SDS011;6686;51.292;4.166;2023-05-19T00:25:57;9.33;;;6.17;;
13238;SDS011;6686;51.292;4.166;2023-05-19T00:28:43;7.07;;;5.47;;
13238;SDS011;6686;51.292;4.166;2023-05-19T00:31:29;8.60;;;6.70;;
13238;SDS011;6686;51.292;4.166;2023-05-19T00:34:14;8.80;;;6.23;;
13238;SDS011;6686;51.292;4.166;2023-05-19T00:37:00;9.77;;;5.90;;
13238;SDS011;6686;51.292;4.166;2023-05-19T00:39:46;9.07;;;5.90;;
13238;SDS011;6686;51.292;4.166;2023-05-19T00:42:32;8.53;;;5.33;;
13238;SDS011;6686;51.292;4.166;2023-05-19T00:45:18;7.33;;;5.87;;
13238;SDS011;6686;51.292;4.166;2023-05-19T00:48:05;10.37;;;6.13;;
13238;SDS011;6686;51.292;4.166;2023-05-19T00:50:51;10.00;;;5.77;;
13238;SDS011;6686;51.292;4.166;2023-05-19T00:53:36;9.33;;;5.40;;
13238;SDS011;6686;51.292;4.166;2023-05-19T00:56:23;6.47;;;5.73;;
13238;SDS011;6686;51.292;4.166;2023-05-19T00:59:08;8.03;;;6.00;;
13238;SDS011;6686;51.292;4.166;2023-05-19T01:01:54;10.77;;;6.93;;
13238;SDS011;6686;51.292;4.166;2023-05-19T01:04:40;11.73;;;6.40;;
13238;SDS011;6686;51.292;4.166;2023-05-19T01:07:26;9.43;;;5.80;;
13238;SDS011;6686;51.292;4.166;2023-05-19T01:10:12;9.87;;;6.07;;
13238;SDS011;6686;51.292;4.166;2023-05-19T01:12:57;9.30;;;5.87;;
13238;SDS011;6686;51.292;4.166;2023-05-19T01:15:57;10.07;;;5.63;;
13238;SDS011;6686;51.292;4.166;2023-05-19T01:31:45;12.07;;;6.70;;
13238;SDS011;6686;51.292;4.166;2023-05-19T01:34:32;10.40;;;6.60;;
13238;SDS011;6686;51.292;4.166;2023-05-19T01:37:18;10.10;;;6.80;;
13238;SDS011;6686;51.292;4.166;2023-05-19T01:40:05;8.73;;;7.78;;
13238;SDS011;6686;51.292;4.166;2023-05-19T01:42:55;10.18;;;8.15;;
13238;SDS011;6686;51.292;4.166;2023-05-19T01:45:40;14.67;;;6.97;;
13238;SDS011;6686;51.292;4.166;2023-05-19T01:48:26;7.30;;;6.17;;
13238;SDS011;6686;51.292;4.166;2023-05-19T01:51:12;11.27;;;7.27;;
13238;SDS011;6686;51.292;4.166;2023-05-19T01:53:58;12.17;;;6.63;;
13238;SDS011;6686;51.292;4.166;2023-05-19T01:59:41;9.93;;;7.50;;
13238;SDS011;6686;51.292;4.166;2023-05-19T02:08:56;9.77;;;6.80;;
13238;SDS011;6686;51.292;4.166;2023-05-19T02:11:49;8.90;;;6.70;;
13238;SDS011;6686;51.292;4.166;2023-05-19T02:14:44;10.13;;;6.67;;
13238;SDS011;6686;51.292;4.166;2023-05-19T02:17:27;10.47;;;7.10;;
13238;SDS011;6686;51.292;4.166;2023-05-19T02:20:16;12.18;;;8.73;;
13238;SDS011;6686;51.292;4.166;2023-05-19T02:23:02;11.93;;;7.83;;
13238;SDS011;6686;51.292;4.166;2023-05-19T02:25:48;11.23;;;7.40;;
13238;SDS011;6686;51.292;4.166;2023-05-19T02:28:34;10.00;;;7.50;;
13238;SDS011;6686;51.292;4.166;2023-05-19T02:31:20;10.33;;;7.40;;
13238;SDS011;6686;51.292;4.166;2023-05-19T02:34:05;14.53;;;7.43;;
13238;SDS011;6686;51.292;4.166;2023-05-19T02:36:52;8.60;;;6.70;;
13238;SDS011;6686;51.292;4.166;2023-05-19T02:39:38;8.13;;;6.37;;
13238;SDS011;6686;51.292;4.166;2023-05-19T02:42:24;9.13;;;7.13;;
13238;SDS011;6686;51.292;4.166;2023-05-19T02:45:10;12.97;;;6.73;;
13238;SDS011;6686;51.292;4.166;2023-05-19T02:47:56;9.77;;;7.37;;
13238;SDS011;6686;51.292;4.166;2023-05-19T02:50:42;12.32;;;8.43;;
13238;SDS011;6686;51.292;4.166;2023-05-19T02:53:28;10.30;;;7.50;;
13238;SDS011;6686;51.292;4.166;2023-05-19T02:56:14;7.93;;;7.03;;
13238;SDS011;6686;51.292;4.166;2023-05-19T02:59:00;11.27;;;7.27;;
13238;SDS011;6686;51.292;4.166;2023-05-19T03:01:46;7.77;;;6.47;;
13238;SDS011;6686;51.292;4.166;2023-05-19T03:04:32;8.93;;;6.43;;
13238;SDS011;6686;51.292;4.166;2023-05-19T03:07:19;8.57;;;6.83;;
13238;SDS011;6686;51.292;4.166;2023-05-19T03:10:05;9.43;;;6.63;;
13238;SDS011;6686;51.292;4.166;2023-05-19T03:12:51;7.60;;;6.33;;
13238;SDS011;6686;51.292;4.166;2023-05-19T03:15:37;8.10;;;5.90;;
13238;SDS011;6686;51.292;4.166;2023-05-19T03:18:24;9.93;;;7.05;;
13238;SDS011;6686;51.292;4.166;2023-05-19T03:21:12;11.73;;;7.30;;
13238;SDS011;6686;51.292;4.166;2023-05-19T03:23:58;7.90;;;5.73;;
13238;SDS011;6686;51.292;4.166;2023-05-19T03:26:44;10.20;;;6.10;;
13238;SDS011;6686;51.292;4.166;2023-05-19T03:29:30;6.97;;;6.03;;
13238;SDS011;6686;51.292;4.166;2023-05-19T03:32:15;10.20;;;7.37;;
13238;SDS011;6686;51.292;4.166;2023-05-19T03:35:02;9.87;;;6.83;;
13238;SDS011;6686;51.292;4.166;2023-05-19T03:37:48;10.23;;;6.83;;
13238;SDS011;6686;51.292;4.166;2023-05-19T03:40:34;11.88;;;7.55;;
13238;SDS011;6686;51.292;4.166;2023-05-19T03:43:20;10.37;;;6.33;;
13238;SDS011;6686;51.292;4.166;2023-05-19T03:46:06;8.80;;;7.13;;
13238;SDS011;6686;51.292;4.166;2023-05-19T03:48:51;10.80;;;6.67;;
13238;SDS011;6686;51.292;4.166;2023-05-19T03:51:37;7.95;;;6.75;;
13238;SDS011;6686;51.292;4.166;2023-05-19T03:54:23;10.47;;;6.20;;
13238;SDS011;6686;51.292;4.166;2023-05-19T03:57:10;11.63;;;6.90;;
13238;SDS011;6686;51.292;4.166;2023-05-19T03:59:55;10.97;;;6.20;;
13238;SDS011;6686;51.292;4.166;2023-05-19T04:02:42;9.20;;;6.00;;
13238;SDS011;6686;51.292;4.166;2023-05-19T04:05:28;14.37;;;6.67;;
13238;SDS011;6686;51.292;4.166;2023-05-19T04:08:14;9.37;;;6.40;;
13238;SDS011;6686;51.292;4.166;2023-05-19T04:11:00;11.13;;;6.37;;
13238;SDS011;6686;51.292;4.166;2023-05-19T04:13:46;11.57;;;5.93;;
13238;SDS011;6686;51.292;4.166;2023-05-19T04:16:32;7.93;;;5.80;;
13238;SDS011;6686;51.292;4.166;2023-05-19T04:19:18;9.75;;;7.35;;
13238;SDS011;6686;51.292;4.166;2023-05-19T04:22:03;9.77;;;6.53;;
13238;SDS011;6686;51.292;4.166;2023-05-19T04:24:49;9.07;;;7.00;;
13238;SDS011;6686;51.292;4.166;2023-05-19T04:27:35;10.93;;;6.63;;
13238;SDS011;6686;51.292;4.166;2023-05-19T04:30:20;10.47;;;6.83;;
13238;SDS011;6686;51.292;4.166;2023-05-19T04:33:06;15.97;;;8.37;;
13238;SDS011;6686;51.292;4.166;2023-05-19T04:35:52;12.70;;;9.07;;
13238;SDS011;6686;51.292;4.166;2023-05-19T04:41:16;16.50;;;8.43;;
13238;SDS011;6686;51.292;4.166;2023-05-19T04:44:02;14.20;;;9.60;;
13238;SDS011;6686;51.292;4.166;2023-05-19T04:46:49;13.13;;;9.10;;
13238;SDS011;6686;51.292;4.166;2023-05-19T04:49:35;13.07;;;9.10;;
13238;SDS011;6686;51.292;4.166;2023-05-19T04:52:23;13.97;;;10.07;;
13238;SDS011;6686;51.292;4.166;2023-05-19T04:55:09;12.30;;;10.10;;
13238;SDS011;6686;51.292;4.166;2023-05-19T04:57:55;16.80;;;11.00;;
13238;SDS011;6686;51.292;4.166;2023-05-19T05:00:42;13.70;;;9.90;;
13238;SDS011;6686;51.292;4.166;2023-05-19T05:03:28;11.20;;;8.37;;
13238;SDS011;6686;51.292;4.166;2023-05-19T05:06:14;10.53;;;7.37;;
13238;SDS011;6686;51.292;4.166;2023-05-19T05:09:00;9.80;;;7.20;;
13238;SDS011;6686;51.292;4.166;2023-05-19T05:14:24;11.43;;;6.57;;
13238;SDS011;6686;51.292;4.166;2023-05-19T05:17:11;9.33;;;6.53;;
13238;SDS011;6686;51.292;4.166;2023-05-19T05:19:57;11.53;;;6.13;;
13238;SDS011;6686;51.292;4.166;2023-05-19T05:22:43;13.00;;;6.13;;
13238;SDS011;6686;51.292;4.166;2023-05-19T05:25:29;9.13;;;6.13;;
13238;SDS011;6686;51.292;4.166;2023-05-19T05:28:15;9.27;;;6.00;;
13238;SDS011;6686;51.292;4.166;2023-05-19T05:31:01;10.50;;;5.97;;
13238;SDS011;6686;51.292;4.166;2023-05-19T05:33:46;9.97;;;6.03;;
13238;SDS011;6686;51.292;4.166;2023-05-19T05:36:33;9.83;;;6.37;;
13238;SDS011;6686;51.292;4.166;2023-05-19T05:39:19;7.83;;;6.27;;
13238;SDS011;6686;51.292;4.166;2023-05-19T05:42:04;8.10;;;6.50;;
13238;SDS011;6686;51.292;4.166;2023-05-19T05:44:50;8.47;;;6.17;;
13238;SDS011;6686;51.292;4.166;2023-05-19T05:47:36;10.37;;;6.30;;
13238;SDS011;6686;51.292;4.166;2023-05-19T05:50:24;9.67;;;5.10;;
13238;SDS011;6686;51.292;4.166;2023-05-19T05:53:12;8.00;;;5.43;;
13238;SDS011;6686;51.292;4.166;2023-05-19T05:55:56;8.87;;;5.77;;
13238;SDS011;6686;51.292;4.166;2023-05-19T05:58:42;6.43;;;4.90;;
13238;SDS011;6686;51.292;4.166;2023-05-19T06:01:28;6.43;;;5.30;;
13238;SDS011;6686;51.292;4.166;2023-05-19T06:04:20;6.90;;;5.55;;
13238;SDS011;6686;51.292;4.166;2023-05-19T06:07:03;7.70;;;5.60;;
13238;SDS011;6686;51.292;4.166;2023-05-19T06:09:49;7.97;;;5.13;;
13238;SDS011;6686;51.292;4.166;2023-05-19T06:12:35;6.10;;;4.87;;
13238;SDS011;6686;51.292;4.166;2023-05-19T06:15:21;7.20;;;4.73;;
13238;SDS011;6686;51.292;4.166;2023-05-19T06:18:10;7.43;;;5.07;;
13238;SDS011;6686;51.292;4.166;2023-05-19T06:20:57;7.83;;;5.17;;
13238;SDS011;6686;51.292;4.166;2023-05-19T06:23:42;8.67;;;5.70;;
13238;SDS011;6686;51.292;4.166;2023-05-19T06:26:29;6.00;;;4.73;;
13238;SDS011;6686;51.292;4.166;2023-05-19T06:29:15;11.37;;;5.23;;
13238;SDS011;6686;51.292;4.166;2023-05-19T06:32:00;7.63;;;5.63;;
13238;SDS011;6686;51.292;4.166;2023-05-19T06:34:46;5.53;;;4.77;;
13238;SDS011;6686;51.292;4.166;2023-05-19T06:37:32;6.67;;;5.50;;
13238;SDS011;6686;51.292;4.166;2023-05-19T06:40:18;10.93;;;5.33;;
13238;SDS011;6686;51.292;4.166;2023-05-19T06:43:04;9.53;;;5.80;;
13238;SDS011;6686;51.292;4.166;2023-05-19T06:45:53;8.77;;;5.43;;
13238;SDS011;6686;51.292;4.166;2023-05-19T06:48:39;9.37;;;5.67;;
13238;SDS011;6686;51.292;4.166;2023-05-19T06:51:25;7.40;;;5.43;;
13238;SDS011;6686;51.292;4.166;2023-05-19T06:54:10;8.17;;;5.13;;
13238;SDS011;6686;51.292;4.166;2023-05-19T06:56:56;6.33;;;5.60;;
13238;SDS011;6686;51.292;4.166;2023-05-19T06:59:42;8.53;;;5.57;;
13238;SDS011;6686;51.292;4.166;2023-05-19T07:02:31;7.90;;;5.40;;
13238;SDS011;6686;51.292;4.166;2023-05-19T07:05:18;8.40;;;5.03;;
13238;SDS011;6686;51.292;4.166;2023-05-19T07:08:04;16.00;;;6.63;;
13238;SDS011;6686;51.292;4.166;2023-05-19T07:10:49;7.63;;;5.40;;
13238;SDS011;6686;51.292;4.166;2023-05-19T07:13:35;9.07;;;6.72;;
13238;SDS011;6686;51.292;4.166;2023-05-19T07:16:22;10.47;;;6.57;;
13238;SDS011;6686;51.292;4.166;2023-05-19T07:19:08;6.67;;;5.57;;
13238;SDS011;6686;51.292;4.166;2023-05-19T07:21:54;7.67;;;5.80;;
13238;SDS011;6686;51.292;4.166;2023-05-19T07:24:40;8.17;;;6.10;;
13238;SDS011;6686;51.292;4.166;2023-05-19T07:27:25;9.63;;;6.40;;
13238;SDS011;6686;51.292;4.166;2023-05-19T07:30:12;11.03;;;5.90;;
13238;SDS011;6686;51.292;4.166;2023-05-19T07:32:57;7.70;;;6.17;;
13238;SDS011;6686;51.292;4.166;2023-05-19T07:35:43;10.20;;;6.20;;
13238;SDS011;6686;51.292;4.166;2023-05-19T07:38:29;9.13;;;6.50;;
13238;SDS011;6686;51.292;4.166;2023-05-19T07:41:15;12.30;;;7.10;;
13238;SDS011;6686;51.292;4.166;2023-05-19T07:44:01;11.80;;;7.20;;
13238;SDS011;6686;51.292;4.166;2023-05-19T07:46:47;8.70;;;6.73;;
13238;SDS011;6686;51.292;4.166;2023-05-19T07:49:34;10.17;;;6.30;;
13238;SDS011;6686;51.292;4.166;2023-05-19T07:52:20;12.07;;;8.02;;
13238;SDS011;6686;51.292;4.166;2023-05-19T07:55:06;12.77;;;8.70;;
13238;SDS011;6686;51.292;4.166;2023-05-19T07:57:52;10.50;;;8.30;;
13238;SDS011;6686;51.292;4.166;2023-05-19T08:00:38;13.57;;;8.97;;
13238;SDS011;6686;51.292;4.166;2023-05-19T08:03:24;13.23;;;8.73;;
13238;SDS011;6686;51.292;4.166;2023-05-19T08:06:10;17.70;;;9.63;;
13238;SDS011;6686;51.292;4.166;2023-05-19T08:08:56;14.70;;;8.00;;
13238;SDS011;6686;51.292;4.166;2023-05-19T08:11:42;10.43;;;8.10;;
13238;SDS011;6686;51.292;4.166;2023-05-19T08:14:28;13.03;;;8.47;;
13238;SDS011;6686;51.292;4.166;2023-05-19T08:17:14;15.70;;;7.70;;
13238;SDS011;6686;51.292;4.166;2023-05-19T08:19:59;12.83;;;7.60;;
13238;SDS011;6686;51.292;4.166;2023-05-19T08:22:45;13.07;;;9.07;;
13238;SDS011;6686;51.292;4.166;2023-05-19T08:25:32;13.00;;;8.57;;
13238;SDS011;6686;51.292;4.166;2023-05-19T08:28:18;11.30;;;7.20;;
13238;SDS011;6686;51.292;4.166;2023-05-19T08:31:04;10.30;;;7.67;;
13238;SDS011;6686;51.292;4.166;2023-05-19T08:33:51;9.95;;;7.70;;
13238;SDS011;6686;51.292;4.166;2023-05-19T08:36:37;10.40;;;7.60;;
13238;SDS011;6686;51.292;4.166;2023-05-19T08:39:24;10.73;;;7.10;;
13238;SDS011;6686;51.292;4.166;2023-05-19T08:42:12;8.43;;;6.67;;
13238;SDS011;6686;51.292;4.166;2023-05-19T08:44:58;9.33;;;6.97;;
13238;SDS011;6686;51.292;4.166;2023-05-19T08:47:44;10.10;;;6.00;;
13238;SDS011;6686;51.292;4.166;2023-05-19T08:50:30;9.27;;;7.13;;
13238;SDS011;6686;51.292;4.166;2023-05-19T08:53:19;8.30;;;7.10;;
13238;SDS011;6686;51.292;4.166;2023-05-19T08:56:09;8.97;;;6.97;;
13238;SDS011;6686;51.292;4.166;2023-05-19T08:58:56;11.83;;;7.10;;
13238;SDS011;6686;51.292;4.166;2023-05-19T09:01:43;9.93;;;6.83;;
13238;SDS011;6686;51.292;4.166;2023-05-19T09:04:28;8.83;;;6.33;;
13238;SDS011;6686;51.292;4.166;2023-05-19T09:07:14;11.38;;;7.68;;
13238;SDS011;6686;51.292;4.166;2023-05-19T09:10:00;10.30;;;6.57;;
13238;SDS011;6686;51.292;4.166;2023-05-19T09:12:46;11.03;;;6.27;;
13238;SDS011;6686;51.292;4.166;2023-05-19T09:15:32;7.77;;;5.67;;
13238;SDS011;6686;51.292;4.166;2023-05-19T09:18:18;10.57;;;6.20;;
13238;SDS011;6686;51.292;4.166;2023-05-19T09:21:04;7.77;;;5.40;;
13238;SDS011;6686;51.292;4.166;2023-05-19T09:23:50;9.10;;;5.50;;
13238;SDS011;6686;51.292;4.166;2023-05-19T09:29:22;11.10;;;6.10;;
13238;SDS011;6686;51.292;4.166;2023-05-19T09:32:08;8.03;;;5.30;;
13238;SDS011;6686;51.292;4.166;2023-05-19T09:34:54;7.60;;;5.00;;
13238;SDS011;6686;51.292;4.166;2023-05-19T09:37:39;8.37;;;5.20;;
13238;SDS011;6686;51.292;4.166;2023-05-19T09:40:28;7.07;;;5.10;;
13238;SDS011;6686;51.292;4.166;2023-05-19T09:43:14;7.70;;;5.53;;
13238;SDS011;6686;51.292;4.166;2023-05-19T09:46:06;9.23;;;5.37;;
13238;SDS011;6686;51.292;4.166;2023-05-19T09:48:55;7.70;;;4.50;;
13238;SDS011;6686;51.292;4.166;2023-05-19T09:51:39;6.73;;;4.67;;
13238;SDS011;6686;51.292;4.166;2023-05-19T09:54:24;6.73;;;4.80;;
13238;SDS011;6686;51.292;4.166;2023-05-19T09:57:09;6.77;;;4.93;;
13238;SDS011;6686;51.292;4.166;2023-05-19T09:59:55;7.93;;;5.10;;
13238;SDS011;6686;51.292;4.166;2023-05-19T10:02:41;7.80;;;5.62;;
13238;SDS011;6686;51.292;4.166;2023-05-19T10:05:27;7.43;;;5.17;;
13238;SDS011;6686;51.292;4.166;2023-05-19T10:08:13;9.00;;;4.87;;
13238;SDS011;6686;51.292;4.166;2023-05-19T10:10:59;6.37;;;4.40;;
13238;SDS011;6686;51.292;4.166;2023-05-19T10:13:44;5.37;;;3.73;;
13238;SDS011;6686;51.292;4.166;2023-05-19T10:16:30;7.33;;;4.17;;
13238;SDS011;6686;51.292;4.166;2023-05-19T10:19:20;8.47;;;4.60;;
13238;SDS011;6686;51.292;4.166;2023-05-19T10:22:05;7.27;;;4.70;;
13238;SDS011;6686;51.292;4.166;2023-05-19T10:24:51;12.87;;;5.03;;
13238;SDS011;6686;51.292;4.166;2023-05-19T10:27:41;8.05;;;4.62;;
13238;SDS011;6686;51.292;4.166;2023-05-19T10:30:28;6.90;;;4.10;;
13238;SDS011;6686;51.292;4.166;2023-05-19T10:33:13;8.10;;;4.03;;
13238;SDS011;6686;51.292;4.166;2023-05-19T10:36:01;8.37;;;3.70;;
13238;SDS011;6686;51.292;4.166;2023-05-19T10:39:02;7.87;;;3.50;;
13238;SDS011;6686;51.292;4.166;2023-05-19T10:44:51;5.67;;;3.40;;
13238;SDS011;6686;51.292;4.166;2023-05-19T10:47:34;6.80;;;3.50;;
13238;SDS011;6686;51.292;4.166;2023-05-19T10:50:20;5.73;;;3.53;;
13238;SDS011;6686;51.292;4.166;2023-05-19T10:53:06;5.27;;;3.10;;
13238;SDS011;6686;51.292;4.166;2023-05-19T10:55:55;7.10;;;3.20;;
13238;SDS011;6686;51.292;4.166;2023-05-19T11:01:31;5.70;;;2.93;;
13238;SDS011;6686;51.292;4.166;2023-05-19T11:04:16;7.83;;;4.00;;
13238;SDS011;6686;51.292;4.166;2023-05-19T11:07:02;5.43;;;3.57;;
13238;SDS011;6686;51.292;4.166;2023-05-19T11:09:51;7.87;;;4.00;;
13238;SDS011;6686;51.292;4.166;2023-05-19T11:12:40;6.93;;;3.50;;
13238;SDS011;6686;51.292;4.166;2023-05-19T11:15:26;7.67;;;3.53;;
13238;SDS011;6686;51.292;4.166;2023-05-19T11:18:12;5.57;;;3.60;;
13238;SDS011;6686;51.292;4.166;2023-05-19T11:20:58;5.40;;;3.33;;
13238;SDS011;6686;51.292;4.166;2023-05-19T11:24:06;6.80;;;3.20;;
13238;SDS011;6686;51.292;4.166;2023-05-19T11:27:28;5.77;;;3.40;;
13238;SDS011;6686;51.292;4.166;2023-05-19T11:30:10;5.03;;;3.17;;
13238;SDS011;6686;51.292;4.166;2023-05-19T11:32:57;7.07;;;3.73;;
13238;SDS011;6686;51.292;4.166;2023-05-19T11:35:47;4.50;;;3.30;;
13238;SDS011;6686;51.292;4.166;2023-05-19T11:38:45;6.85;;;3.85;;
13238;SDS011;6686;51.292;4.166;2023-05-19T11:41:32;5.53;;;3.30;;
13238;SDS011;6686;51.292;4.166;2023-05-19T11:44:19;7.43;;;3.60;;
13238;SDS011;6686;51.292;4.166;2023-05-19T11:50:41;5.07;;;3.50;;
13238;SDS011;6686;51.292;4.166;2023-05-19T11:56:23;7.60;;;3.50;;
13238;SDS011;6686;51.292;4.166;2023-05-19T11:59:09;5.53;;;3.47;;
13238;SDS011;6686;51.292;4.166;2023-05-19T12:01:55;8.33;;;3.73;;
13238;SDS011;6686;51.292;4.166;2023-05-19T12:04:56;9.17;;;3.77;;
13238;SDS011;6686;51.292;4.166;2023-05-19T12:07:45;4.17;;;3.30;;
13238;SDS011;6686;51.292;4.166;2023-05-19T12:10:31;5.93;;;3.20;;
13238;SDS011;6686;51.292;4.166;2023-05-19T12:13:20;8.17;;;4.07;;
13238;SDS011;6686;51.292;4.166;2023-05-19T12:16:33;5.83;;;3.23;;
13238;SDS011;6686;51.292;4.166;2023-05-19T12:19:24;7.33;;;3.50;;
13238;SDS011;6686;51.292;4.166;2023-05-19T12:22:16;6.90;;;4.23;;
13238;SDS011;6686;51.292;4.166;2023-05-19T12:25:02;9.80;;;3.40;;
13238;SDS011;6686;51.292;4.166;2023-05-19T12:27:49;6.83;;;3.53;;
13238;SDS011;6686;51.292;4.166;2023-05-19T12:30:35;5.17;;;3.70;;
13238;SDS011;6686;51.292;4.166;2023-05-19T12:33:31;7.07;;;4.20;;
13238;SDS011;6686;51.292;4.166;2023-05-19T12:36:19;5.43;;;3.30;;
13238;SDS011;6686;51.292;4.166;2023-05-19T12:39:08;6.17;;;3.53;;
13238;SDS011;6686;51.292;4.166;2023-05-19T12:41:59;7.73;;;3.80;;
13238;SDS011;6686;51.292;4.166;2023-05-19T12:44:47;6.83;;;3.50;;
13238;SDS011;6686;51.292;4.166;2023-05-19T12:47:32;4.80;;;3.13;;
13238;SDS011;6686;51.292;4.166;2023-05-19T12:50:18;6.03;;;3.77;;
13238;SDS011;6686;51.292;4.166;2023-05-19T12:53:07;5.00;;;3.47;;
13238;SDS011;6686;51.292;4.166;2023-05-19T12:55:51;7.90;;;3.30;;
13238;SDS011;6686;51.292;4.166;2023-05-19T12:58:37;5.93;;;4.07;;
13238;SDS011;6686;51.292;4.166;2023-05-19T13:01:25;6.13;;;3.60;;
13238;SDS011;6686;51.292;4.166;2023-05-19T13:04:11;7.40;;;3.80;;
13238;SDS011;6686;51.292;4.166;2023-05-19T13:06:57;6.63;;;3.47;;
13238;SDS011;6686;51.292;4.166;2023-05-19T13:09:44;5.77;;;3.90;;
13238;SDS011;6686;51.292;4.166;2023-05-19T13:12:30;6.60;;;3.70;;
13238;SDS011;6686;51.292;4.166;2023-05-19T13:15:16;5.03;;;3.90;;
13238;SDS011;6686;51.292;4.166;2023-05-19T13:18:03;6.67;;;3.77;;
13238;SDS011;6686;51.292;4.166;2023-05-19T13:20:48;6.80;;;3.83;;
13238;SDS011;6686;51.292;4.166;2023-05-19T13:23:37;6.30;;;4.20;;
13238;SDS011;6686;51.292;4.166;2023-05-19T13:26:30;9.10;;;4.27;;
13238;SDS011;6686;51.292;4.166;2023-05-19T13:29:12;5.50;;;3.80;;
13238;SDS011;6686;51.292;4.166;2023-05-19T13:31:58;7.07;;;3.80;;
13238;SDS011;6686;51.292;4.166;2023-05-19T13:34:45;7.78;;;4.40;;
13238;SDS011;6686;51.292;4.166;2023-05-19T13:37:32;7.67;;;5.20;;
13238;SDS011;6686;51.292;4.166;2023-05-19T13:40:18;8.97;;;4.33;;
13238;SDS011;6686;51.292;4.166;2023-05-19T13:43:05;6.50;;;3.80;;
13238;SDS011;6686;51.292;4.166;2023-05-19T13:45:51;6.97;;;3.27;;
13238;SDS011;6686;51.292;4.166;2023-05-19T13:48:36;4.63;;;2.80;;
13238;SDS011;6686;51.292;4.166;2023-05-19T13:51:22;5.30;;;3.03;;
13238;SDS011;6686;51.292;4.166;2023-05-19T13:54:09;4.03;;;3.03;;
13238;SDS011;6686;51.292;4.166;2023-05-19T13:56:56;7.37;;;3.07;;
13238;SDS011;6686;51.292;4.166;2023-05-19T13:59:42;8.00;;;3.40;;
13238;SDS011;6686;51.292;4.166;2023-05-19T14:02:28;5.83;;;3.00;;
13238;SDS011;6686;51.292;4.166;2023-05-19T14:05:21;6.70;;;3.13;;
13238;SDS011;6686;51.292;4.166;2023-05-19T14:11:00;5.83;;;3.10;;
13238;SDS011;6686;51.292;4.166;2023-05-19T14:13:49;3.50;;;2.70;;
13238;SDS011;6686;51.292;4.166;2023-05-19T14:16:39;4.57;;;2.63;;
13238;SDS011;6686;51.292;4.166;2023-05-19T14:19:25;3.80;;;2.70;;
13238;SDS011;6686;51.292;4.166;2023-05-19T14:22:11;7.18;;;3.40;;
13238;SDS011;6686;51.292;4.166;2023-05-19T14:24:58;6.27;;;2.70;;
13238;SDS011;6686;51.292;4.166;2023-05-19T14:27:43;4.50;;;2.90;;
13238;SDS011;6686;51.292;4.166;2023-05-19T14:30:29;5.75;;;2.67;;
13238;SDS011;6686;51.292;4.166;2023-05-19T14:33:15;4.67;;;3.00;;
13238;SDS011;6686;51.292;4.166;2023-05-19T14:36:01;5.15;;;2.60;;
13238;SDS011;6686;51.292;4.166;2023-05-19T14:38:47;3.13;;;2.50;;
13238;SDS011;6686;51.292;4.166;2023-05-19T14:41:33;5.00;;;2.50;;
13238;SDS011;6686;51.292;4.166;2023-05-19T14:44:19;4.90;;;2.63;;
13238;SDS011;6686;51.292;4.166;2023-05-19T14:47:05;4.63;;;2.53;;
13238;SDS011;6686;51.292;4.166;2023-05-19T14:49:51;4.40;;;2.80;;
13238;SDS011;6686;51.292;4.166;2023-05-19T14:52:39;5.10;;;2.43;;
13238;SDS011;6686;51.292;4.166;2023-05-19T14:55:28;6.03;;;2.43;;
13238;SDS011;6686;51.292;4.166;2023-05-19T14:58:14;5.43;;;2.50;;
13238;SDS011;6686;51.292;4.166;2023-05-19T15:01:00;4.53;;;2.20;;
13238;SDS011;6686;51.292;4.166;2023-05-19T15:03:46;4.32;;;2.70;;
13238;SDS011;6686;51.292;4.166;2023-05-19T15:06:32;5.40;;;2.67;;
13238;SDS011;6686;51.292;4.166;2023-05-19T15:09:18;5.97;;;2.60;;
13238;SDS011;6686;51.292;4.166;2023-05-19T15:12:16;7.77;;;2.63;;
13238;SDS011;6686;51.292;4.166;2023-05-19T15:18:52;5.20;;;2.53;;
13238;SDS011;6686;51.292;4.166;2023-05-19T15:21:39;3.67;;;2.30;;
13238;SDS011;6686;51.292;4.166;2023-05-19T15:24:25;8.70;;;2.80;;
13238;SDS011;6686;51.292;4.166;2023-05-19T15:27:11;4.00;;;2.77;;
13238;SDS011;6686;51.292;4.166;2023-05-19T15:30:02;5.97;;;2.50;;
13238;SDS011;6686;51.292;4.166;2023-05-19T15:32:49;7.50;;;2.67;;
13238;SDS011;6686;51.292;4.166;2023-05-19T15:35:36;5.07;;;2.63;;
13238;SDS011;6686;51.292;4.166;2023-05-19T15:38:21;5.43;;;2.90;;
13238;SDS011;6686;51.292;4.166;2023-05-19T15:41:09;4.87;;;2.80;;
13238;SDS011;6686;51.292;4.166;2023-05-19T15:43:54;6.10;;;3.17;;
13238;SDS011;6686;51.292;4.166;2023-05-19T15:46:40;6.33;;;3.10;;
13238;SDS011;6686;51.292;4.166;2023-05-19T15:49:28;6.00;;;2.60;;
13238;SDS011;6686;51.292;4.166;2023-05-19T15:52:14;5.93;;;2.87;;
13238;SDS011;6686;51.292;4.166;2023-05-19T15:55:00;3.87;;;2.50;;
13238;SDS011;6686;51.292;4.166;2023-05-19T15:57:47;6.03;;;3.00;;
13238;SDS011;6686;51.292;4.166;2023-05-19T16:00:33;3.70;;;2.53;;
13238;SDS011;6686;51.292;4.166;2023-05-19T16:03:19;6.90;;;4.63;;
13238;SDS011;6686;51.292;4.166;2023-05-19T16:06:04;7.33;;;3.20;;
13238;SDS011;6686;51.292;4.166;2023-05-19T16:08:50;4.10;;;2.87;;
13238;SDS011;6686;51.292;4.166;2023-05-19T16:11:36;6.23;;;2.80;;
13238;SDS011;6686;51.292;4.166;2023-05-19T16:14:22;9.47;;;2.90;;
13238;SDS011;6686;51.292;4.166;2023-05-19T16:17:08;5.32;;;3.45;;
13238;SDS011;6686;51.292;4.166;2023-05-19T16:19:54;6.97;;;3.60;;
13238;SDS011;6686;51.292;4.166;2023-05-19T16:22:40;6.23;;;3.20;;
13238;SDS011;6686;51.292;4.166;2023-05-19T16:25:26;11.70;;;4.03;;
13238;SDS011;6686;51.292;4.166;2023-05-19T16:28:12;5.83;;;3.07;;
13238;SDS011;6686;51.292;4.166;2023-05-19T16:30:58;6.30;;;2.73;;
13238;SDS011;6686;51.292;4.166;2023-05-19T16:33:44;5.10;;;3.07;;
13238;SDS011;6686;51.292;4.166;2023-05-19T16:36:30;5.03;;;2.60;;
13238;SDS011;6686;51.292;4.166;2023-05-19T16:39:18;3.37;;;2.47;;
13238;SDS011;6686;51.292;4.166;2023-05-19T16:42:04;5.47;;;2.60;;
13238;SDS011;6686;51.292;4.166;2023-05-19T16:44:50;2.93;;;2.60;;
13238;SDS011;6686;51.292;4.166;2023-05-19T16:47:38;4.10;;;2.87;;
13238;SDS011;6686;51.292;4.166;2023-05-19T16:50:24;5.80;;;3.08;;
13238;SDS011;6686;51.292;4.166;2023-05-19T16:53:10;4.23;;;2.97;;
13238;SDS011;6686;51.292;4.166;2023-05-19T16:55:56;3.50;;;2.10;;
13238;SDS011;6686;51.292;4.166;2023-05-19T16:58:42;5.33;;;2.60;;
13238;SDS011;6686;51.292;4.166;2023-05-19T17:01:30;6.20;;;2.67;;
13238;SDS011;6686;51.292;4.166;2023-05-19T17:04:16;4.83;;;2.63;;
13238;SDS011;6686;51.292;4.166;2023-05-19T17:07:02;4.23;;;2.83;;
13238;SDS011;6686;51.292;4.166;2023-05-19T17:09:54;5.13;;;2.67;;
13238;SDS011;6686;51.292;4.166;2023-05-19T17:12:39;5.47;;;2.60;;
13238;SDS011;6686;51.292;4.166;2023-05-19T17:15:22;5.37;;;2.90;;
13238;SDS011;6686;51.292;4.166;2023-05-19T17:18:10;5.93;;;3.07;;
13238;SDS011;6686;51.292;4.166;2023-05-19T17:20:55;5.87;;;3.50;;
13238;SDS011;6686;51.292;4.166;2023-05-19T17:23:49;3.90;;;2.90;;
13238;SDS011;6686;51.292;4.166;2023-05-19T17:26:32;6.60;;;2.53;;
13238;SDS011;6686;51.292;4.166;2023-05-19T17:29:19;7.83;;;2.77;;
13238;SDS011;6686;51.292;4.166;2023-05-19T17:32:05;4.87;;;3.00;;
13238;SDS011;6686;51.292;4.166;2023-05-19T17:34:54;4.90;;;3.00;;
13238;SDS011;6686;51.292;4.166;2023-05-19T17:37:37;5.60;;;3.03;;
13238;SDS011;6686;51.292;4.166;2023-05-19T17:40:22;6.57;;;2.70;;
13238;SDS011;6686;51.292;4.166;2023-05-19T17:43:08;5.43;;;3.03;;
13238;SDS011;6686;51.292;4.166;2023-05-19T17:45:54;5.77;;;3.17;;